createdAt,value
2023-03-15T00:01:05.563Z,42.37
2023-03-15T00:03:37.374Z,41.82
2023-03-15T00:06:07.815Z,42.65
2023-03-15T00:08:36.207Z,42.37
2023-03-15T00:11:04.977Z,42.76
2023-03-15T00:13:33.372Z,42.93
2023-03-15T00:16:03.342Z,42.09
2023-03-15T00:18:32.100Z,41.71
2023-03-15T00:21:03.124Z,42.23
2023-03-15T00:23:32.910Z,41.27
2023-03-15T00:26:01.233Z,41.71
2023-03-15T00:28:29.555Z,42.17
2023-03-15T00:31:05.669Z,42.23
2023-03-15T00:33:35.179Z,42.50
2023-03-15T00:36:08.068Z,41.59
2023-03-15T00:38:39.720Z,42.45
2023-03-15T00:41:09.170Z,42.11
2023-03-15T00:43:37.844Z,42.23
2023-03-15T00:46:06.988Z,41.55
2023-03-15T00:48:36.375Z,41.43
2023-03-15T00:51:06.919Z,41.96
2023-03-15T00:53:37.427Z,42.05
2023-03-15T00:56:07.317Z,41.70
2023-03-15T00:58:36.147Z,41.76
2023-03-15T01:01:07.569Z,41.78
2023-03-15T01:03:37.056Z,42.39
2023-03-15T01:06:09.908Z,42.17
2023-03-15T01:08:39.977Z,41.57
2023-03-15T01:11:11.967Z,42.04
2023-03-15T01:13:41.025Z,41.66
2023-03-15T01:16:11.153Z,42.36
2023-03-15T01:18:41.397Z,42.65
2023-03-15T01:21:10.769Z,41.94
2023-03-15T01:23:40.846Z,42.03
2023-03-15T01:26:12.573Z,42.80
2023-03-15T01:28:41.152Z,43.06
2023-03-15T01:31:11.370Z,42.91
2023-03-15T01:33:40.031Z,43.17
2023-03-15T01:36:10.172Z,43.33
2023-03-15T01:38:41.369Z,44.13
2023-03-15T01:41:11.009Z,44.41
2023-03-15T01:43:39.457Z,44.27
2023-03-15T01:46:26.676Z,44.89
2023-03-15T01:49:05.347Z,44.91
2023-03-15T01:51:40.246Z,45.13
2023-03-15T01:54:12.300Z,46.14
2023-03-15T01:56:43.948Z,45.92
2023-03-15T01:59:15.800Z,46.64
2023-03-15T02:01:46.004Z,46.69
2023-03-15T02:04:19.645Z,47.00
2023-03-15T02:06:50.687Z,46.46
2023-03-15T02:09:22.420Z,47.80
2023-03-15T02:11:50.905Z,47.43
2023-03-15T02:14:22.539Z,47.34
2023-03-15T02:16:53.643Z,47.46
2023-03-15T02:19:36.563Z,47.90
2023-03-15T02:22:19.754Z,47.26
2023-03-15T02:24:53.836Z,48.24
2023-03-15T02:27:29.186Z,48.03
2023-03-15T02:29:57.709Z,48.51
2023-03-15T02:32:26.284Z,49.11
2023-03-15T02:34:54.637Z,49.76
2023-03-15T02:37:23.097Z,49.62
2023-03-15T02:39:51.556Z,49.25
2023-03-15T02:42:20.286Z,49.52
2023-03-15T02:44:52.290Z,50.32
2023-03-15T02:47:23.248Z,50.27
2023-03-15T02:49:53.975Z,50.44
2023-03-15T02:52:22.842Z,49.56
2023-03-15T02:54:51.498Z,50.62
2023-03-15T02:57:20.765Z,50.41
2023-03-15T02:59:51.469Z,50.54
2023-03-15T03:02:20.764Z,50.52
2023-03-15T03:04:49.210Z,50.52
2023-03-15T03:07:20.210Z,50.57
2023-03-15T03:09:52.807Z,51.31
2023-03-15T03:12:22.578Z,51.54
2023-03-15T03:14:52.434Z,51.05
2023-03-15T03:17:24.692Z,50.88
2023-03-15T03:19:53.067Z,51.22
2023-03-15T03:22:27.564Z,51.21
2023-03-15T03:24:56.302Z,51.13
2023-03-15T03:27:24.709Z,51.15
2023-03-15T03:29:54.420Z,50.79
2023-03-15T03:32:23.053Z,50.66
2023-03-15T03:34:53.515Z,50.07
2023-03-15T03:37:24.165Z,49.62
2023-03-15T03:40:00.496Z,49.48
2023-03-15T03:42:29.110Z,50.43
2023-03-15T03:44:58.928Z,49.26
2023-03-15T03:47:34.277Z,48.88
2023-03-15T03:50:02.646Z,49.22
2023-03-15T03:52:31.291Z,49.36
2023-03-15T03:55:07.811Z,49.46
2023-03-15T03:57:36.288Z,49.49
2023-03-15T04:00:11.855Z,49.16
2023-03-15T04:02:43.965Z,48.97
2023-03-15T04:05:14.835Z,48.95
2023-03-15T04:07:43.595Z,48.51
2023-03-15T04:10:14.995Z,49.03
2023-03-15T04:12:46.985Z,48.85
2023-03-15T04:15:18.549Z,49.20
2023-03-15T04:17:47.003Z,48.27
2023-03-15T04:20:17.607Z,48.51
2023-03-15T04:22:49.756Z,48.77
2023-03-15T04:25:26.907Z,48.43
2023-03-15T04:28:06.142Z,48.39
2023-03-15T04:30:52.446Z,48.23
2023-03-15T04:33:43.526Z,48.28
2023-03-15T04:36:30.140Z,48.15
2023-03-15T04:39:34.491Z,47.81
2023-03-15T04:42:26.196Z,48.34
2023-03-15T04:45:00.201Z,48.11
2023-03-15T04:48:05.627Z,47.87
2023-03-15T04:50:41.136Z,47.88
2023-03-15T04:53:30.127Z,48.04
2023-03-15T04:56:32.836Z,47.98
2023-03-15T04:59:32.933Z,48.16
2023-03-15T05:02:24.894Z,48.58
2023-03-15T05:05:17.650Z,49.35
2023-03-15T05:08:11.843Z,48.37
2023-03-15T05:11:03.301Z,48.08
2023-03-15T05:13:47.984Z,48.43
2023-03-15T05:16:36.265Z,48.53
2023-03-15T05:19:17.809Z,48.49
2023-03-15T05:22:03.856Z,49.15
2023-03-15T05:25:04.866Z,48.78
2023-03-15T05:28:00.156Z,50.28
2023-03-15T05:30:36.429Z,49.72
2023-03-15T05:33:25.529Z,50.42
2023-03-15T05:36:22.834Z,49.06
2023-03-15T05:39:33.253Z,48.78
2023-03-15T05:42:13.595Z,49.50
2023-03-15T05:44:47.513Z,49.87
2023-03-15T05:47:35.886Z,50.49
2023-03-15T05:50:07.779Z,50.42
2023-03-15T05:52:57.117Z,50.62
2023-03-15T05:55:44.882Z,50.54
2023-03-15T05:58:29.065Z,50.68
2023-03-15T06:01:06.394Z,50.63
2023-03-15T06:03:59.109Z,50.96
2023-03-15T06:06:33.551Z,52.23
2023-03-15T06:09:03.017Z,51.90
2023-03-15T06:11:32.852Z,52.29
2023-03-15T06:14:02.326Z,52.57
2023-03-15T06:16:39.177Z,53.42
2023-03-15T06:19:08.675Z,52.53
2023-03-15T06:21:37.112Z,52.87
2023-03-15T06:24:11.221Z,53.45
2023-03-15T06:26:40.968Z,53.66
2023-03-15T06:29:09.631Z,53.90
2023-03-15T06:31:38.028Z,54.45
2023-03-15T06:34:10.166Z,54.51
2023-03-15T06:36:38.913Z,54.97
2023-03-15T06:39:07.853Z,54.53
2023-03-15T06:41:36.129Z,54.86
2023-03-15T06:44:14.045Z,55.85
2023-03-15T06:46:43.154Z,55.46
2023-03-15T06:49:13.890Z,55.81
2023-03-15T06:51:45.228Z,55.54
2023-03-15T06:54:13.673Z,55.47
2023-03-15T06:56:41.985Z,56.69
2023-03-15T06:59:10.454Z,56.68
2023-03-15T07:01:40.633Z,56.33
2023-03-15T07:04:09.660Z,56.33
2023-03-15T07:06:38.158Z,56.85
2023-03-15T07:09:07.017Z,57.22
2023-03-15T07:11:35.406Z,57.57
2023-03-15T07:14:03.690Z,56.18
2023-03-15T07:16:32.032Z,56.25
2023-03-15T07:19:02.261Z,57.73
2023-03-15T07:21:30.800Z,58.01
2023-03-15T07:23:59.160Z,57.87
2023-03-15T07:26:27.420Z,58.03
2023-03-15T07:28:55.803Z,58.68
2023-03-15T07:31:24.090Z,58.90
2023-03-15T07:33:52.418Z,59.38
2023-03-15T07:36:22.360Z,58.81
2023-03-15T07:38:50.792Z,58.73
2023-03-15T07:41:19.561Z,59.76
2023-03-15T07:43:59.192Z,59.70
2023-03-15T07:46:28.422Z,60.03
2023-03-15T07:48:56.856Z,60.75
2023-03-15T07:51:26.507Z,60.86
2023-03-15T07:53:54.806Z,60.18
2023-03-15T07:56:23.160Z,60.35
2023-03-15T07:58:51.445Z,61.19
2023-03-15T08:01:19.778Z,61.04
2023-03-15T08:03:48.285Z,61.88
2023-03-15T08:06:16.570Z,62.24
2023-03-15T08:08:46.794Z,62.30
2023-03-15T08:11:15.110Z,62.12
2023-03-15T08:13:43.390Z,62.51
2023-03-15T08:16:11.750Z,62.14
2023-03-15T08:18:40.112Z,62.04
2023-03-15T08:21:08.363Z,61.38
2023-03-15T08:23:36.662Z,60.69
2023-03-15T08:26:06.674Z,60.93
2023-03-15T08:28:35.069Z,60.07
2023-03-15T08:31:07.932Z,58.88
2023-03-15T08:33:36.351Z,59.34
2023-03-15T08:36:05.023Z,58.66
2023-03-15T08:38:33.330Z,57.79
2023-03-15T08:41:01.680Z,58.88
2023-03-15T08:43:31.357Z,58.04
2023-03-15T08:46:01.486Z,57.40
2023-03-15T08:48:31.657Z,55.62
2023-03-15T08:51:04.533Z,55.92
2023-03-15T08:53:33.259Z,54.86
2023-03-15T08:56:01.732Z,55.32
2023-03-15T08:58:31.586Z,53.83
2023-03-15T09:01:00.105Z,54.44
2023-03-15T09:03:28.450Z,54.81
2023-03-15T09:06:00.596Z,56.65
2023-03-15T09:08:28.881Z,54.50
2023-03-15T09:10:57.518Z,52.49
2023-03-15T09:13:32.621Z,53.24
2023-03-15T09:16:03.530Z,51.92
2023-03-15T09:18:31.939Z,52.03
2023-03-15T09:21:00.283Z,50.75
2023-03-15T09:23:28.691Z,50.53
2023-03-15T09:25:57.008Z,50.19
2023-03-15T09:28:26.735Z,50.04
2023-03-15T09:30:55.283Z,49.92
2023-03-15T09:33:25.382Z,50.32
2023-03-15T09:35:54.207Z,50.43
2023-03-15T09:38:24.227Z,50.83
2023-03-15T09:40:57.752Z,49.97
2023-03-15T09:43:40.207Z,51.19
2023-03-15T09:46:20.188Z,50.56
2023-03-15T09:48:52.413Z,50.57
2023-03-15T09:51:30.400Z,49.87
2023-03-15T09:54:00.471Z,50.16
2023-03-15T09:56:31.132Z,50.41
2023-03-15T09:59:01.790Z,49.62
2023-03-15T10:01:33.056Z,49.97
2023-03-15T10:04:06.465Z,50.14
2023-03-15T10:06:37.808Z,50.76
2023-03-15T10:09:13.940Z,50.86
2023-03-15T10:11:47.914Z,50.62
2023-03-15T10:14:26.210Z,54.15
2023-03-15T10:16:54.482Z,62.98
2023-03-15T10:19:35.598Z,100.00
2023-03-15T10:22:19.988Z,100.00
2023-03-15T10:24:51.658Z,100.00
2023-03-15T10:27:23.174Z,100.00
2023-03-15T10:29:53.776Z,100.00
2023-03-15T10:32:24.160Z,100.00
2023-03-15T10:34:56.754Z,100.00
2023-03-15T10:37:25.545Z,100.00
2023-03-15T10:39:57.483Z,100.00
2023-03-15T10:42:27.884Z,100.00
2023-03-15T10:44:56.326Z,100.00
2023-03-15T10:47:25.831Z,100.00
2023-03-15T10:50:00.576Z,100.00
2023-03-15T10:52:35.360Z,100.00
2023-03-15T10:55:06.935Z,86.91
2023-03-15T10:57:39.145Z,82.62
2023-03-15T11:00:20.596Z,75.38
2023-03-15T11:02:52.889Z,71.10
2023-03-15T11:05:22.993Z,69.55
2023-03-15T11:07:56.089Z,63.60
2023-03-15T11:10:26.359Z,63.29
2023-03-15T11:13:20.752Z,64.88
2023-03-15T11:15:58.126Z,63.30
2023-03-15T11:18:29.431Z,57.58
2023-03-15T11:20:59.873Z,53.57
2023-03-15T11:23:30.358Z,49.79
2023-03-15T11:25:59.107Z,49.52
2023-03-15T11:28:29.494Z,49.21
2023-03-15T11:31:02.053Z,48.57
2023-03-15T11:33:39.941Z,48.55
2023-03-15T11:36:14.732Z,47.46
2023-03-15T11:38:46.354Z,46.86
2023-03-15T11:41:23.550Z,46.20
2023-03-15T11:43:57.891Z,46.65
2023-03-15T11:46:29.619Z,46.52
2023-03-15T11:49:03.709Z,45.28
2023-03-15T11:51:37.053Z,45.48
2023-03-15T11:54:15.258Z,44.16
2023-03-15T11:56:52.917Z,42.91
2023-03-15T11:59:25.670Z,42.43
2023-03-15T12:01:57.884Z,41.77
2023-03-15T12:04:45.429Z,41.15
2023-03-15T12:07:39.820Z,41.41
2023-03-15T12:10:31.845Z,40.58
2023-03-15T12:13:01.771Z,40.43
2023-03-15T12:15:47.707Z,40.78
2023-03-15T12:18:18.206Z,40.03
2023-03-15T12:20:52.431Z,39.98
2023-03-15T12:23:34.241Z,39.10
2023-03-15T12:26:08.205Z,37.88
2023-03-15T12:28:38.246Z,37.58
2023-03-15T12:31:08.186Z,37.12
2023-03-15T12:33:47.660Z,36.38
2023-03-15T12:36:27.914Z,36.17
2023-03-15T12:39:01.961Z,36.27
2023-03-15T12:41:39.250Z,36.29
2023-03-15T12:44:29.144Z,35.45
2023-03-15T12:47:00.669Z,36.00
2023-03-15T12:49:35.280Z,35.86
2023-03-15T12:52:05.896Z,35.29
2023-03-15T12:54:43.741Z,35.77
2023-03-15T12:57:14.189Z,35.75
2023-03-15T12:59:47.743Z,35.04
2023-03-15T13:02:41.816Z,34.95
2023-03-15T13:05:18.527Z,34.96
2023-03-15T13:07:58.209Z,34.57
2023-03-15T13:10:41.587Z,34.12
2023-03-15T13:13:35.141Z,34.86
2023-03-15T13:16:15.578Z,34.60
2023-03-15T13:18:52.883Z,33.49
2023-03-15T13:21:26.110Z,33.45
2023-03-15T13:23:58.027Z,32.93
2023-03-15T13:26:44.161Z,32.98
2023-03-15T13:29:17.741Z,32.93
2023-03-15T13:31:47.183Z,33.26
2023-03-15T13:34:19.474Z,32.71
2023-03-15T13:36:49.651Z,31.58
2023-03-15T13:39:20.722Z,31.70
2023-03-15T13:41:57.789Z,30.59
2023-03-15T13:44:26.948Z,31.47
2023-03-15T13:46:55.913Z,30.84
2023-03-15T13:49:24.666Z,31.16
2023-03-15T13:51:54.619Z,31.29
2023-03-15T13:54:26.795Z,31.36
2023-03-15T13:57:01.812Z,30.61
2023-03-15T13:59:33.850Z,30.98
2023-03-15T14:02:03.701Z,31.62
2023-03-15T14:04:34.104Z,32.11
2023-03-15T14:07:14.295Z,33.21
2023-03-15T14:09:42.637Z,34.10
2023-03-15T14:12:20.125Z,32.93
2023-03-15T14:14:51.631Z,33.47
2023-03-15T14:17:23.980Z,33.41
2023-03-15T14:19:55.487Z,33.55
2023-03-15T14:22:24.335Z,33.22
2023-03-15T14:24:53.609Z,33.17
2023-03-15T14:27:27.574Z,33.59
2023-03-15T14:29:56.673Z,32.59
2023-03-15T14:32:28.959Z,33.16
2023-03-15T14:35:02.786Z,32.65
2023-03-15T14:37:34.083Z,33.95
2023-03-15T14:40:22.006Z,34.68
2023-03-15T14:42:52.595Z,34.36
2023-03-15T14:45:22.504Z,34.19
2023-03-15T14:47:57.211Z,34.78
2023-03-15T14:50:28.698Z,34.73
2023-03-15T14:52:58.403Z,34.95
2023-03-15T14:55:34.892Z,35.86
2023-03-15T14:58:05.783Z,35.93
2023-03-15T15:00:34.523Z,36.04
2023-03-15T15:03:03.269Z,36.10
2023-03-15T15:05:32.728Z,35.92
2023-03-15T15:08:04.151Z,35.54
2023-03-15T15:10:35.003Z,34.78
2023-03-15T15:13:07.064Z,34.81
2023-03-15T15:15:54.142Z,35.62
2023-03-15T15:18:28.373Z,34.63
2023-03-15T15:20:57.565Z,34.70
2023-03-15T15:23:28.559Z,35.58
2023-03-15T15:25:59.816Z,35.73
2023-03-15T15:28:36.080Z,35.60
2023-03-15T15:31:07.370Z,34.87
2023-03-15T15:33:36.786Z,35.69
2023-03-15T15:36:09.321Z,35.16
2023-03-15T15:38:40.291Z,35.50
2023-03-15T15:41:15.864Z,35.36
2023-03-15T15:43:45.934Z,35.01
2023-03-15T15:46:16.315Z,34.34
2023-03-15T15:48:45.604Z,34.24
2023-03-15T15:51:21.551Z,34.40
2023-03-15T15:53:50.491Z,34.77
2023-03-15T15:56:19.088Z,34.48
2023-03-15T15:58:49.052Z,34.22
2023-03-15T16:01:18.692Z,34.98
2023-03-15T16:03:48.701Z,34.92
2023-03-15T16:06:22.273Z,35.44
2023-03-15T16:08:53.891Z,34.58
2023-03-15T16:11:22.850Z,34.75
2023-03-15T16:13:54.672Z,34.58
2023-03-15T16:16:25.769Z,34.52
2023-03-15T16:19:01.639Z,35.02
2023-03-15T16:21:34.450Z,35.48
2023-03-15T16:24:07.932Z,35.08
2023-03-15T16:26:38.958Z,35.22
2023-03-15T16:29:17.856Z,35.33
2023-03-15T16:31:47.728Z,35.32
2023-03-15T16:34:23.773Z,35.23
2023-03-15T16:36:59.376Z,35.48
2023-03-15T16:39:38.154Z,35.85
2023-03-15T16:42:13.195Z,35.95
2023-03-15T16:44:44.963Z,35.81
2023-03-15T16:47:26.372Z,36.09
2023-03-15T16:49:59.897Z,36.65
2023-03-15T16:52:31.727Z,36.39
2023-03-15T16:55:01.843Z,37.06
2023-03-15T16:57:31.384Z,37.27
2023-03-15T17:00:05.364Z,37.51
2023-03-15T17:02:35.448Z,38.23
2023-03-15T17:05:05.422Z,38.21
2023-03-15T17:07:38.792Z,38.41
2023-03-15T17:10:12.487Z,37.93
2023-03-15T17:12:42.588Z,38.29
2023-03-15T17:15:17.200Z,38.87
2023-03-15T17:17:47.965Z,38.84
2023-03-15T17:20:22.279Z,39.03
2023-03-15T17:23:00.482Z,39.22
2023-03-15T17:25:31.694Z,39.03
2023-03-15T17:28:05.858Z,39.33
2023-03-15T17:30:41.676Z,40.08
2023-03-15T17:33:13.747Z,39.89
2023-03-15T17:35:48.545Z,40.20
2023-03-15T17:38:22.282Z,39.96
2023-03-15T17:40:54.222Z,40.33
2023-03-15T17:43:26.905Z,40.34
2023-03-15T17:45:58.256Z,40.60
2023-03-15T17:48:34.727Z,40.07
2023-03-15T17:51:08.286Z,40.89
2023-03-15T17:53:45.333Z,41.42
2023-03-15T17:56:17.728Z,41.71
2023-03-15T17:59:00.008Z,41.09
2023-03-15T18:01:43.138Z,41.68
2023-03-15T18:04:13.029Z,41.78
2023-03-15T18:06:43.164Z,42.94
2023-03-15T18:09:15.649Z,43.10
2023-03-15T18:11:48.675Z,43.42
2023-03-15T18:14:22.101Z,43.82
2023-03-15T18:16:54.032Z,43.40
2023-03-15T18:19:25.836Z,43.27
2023-03-15T18:21:55.484Z,44.16
2023-03-15T18:24:26.336Z,44.13
2023-03-15T18:26:58.487Z,44.22
2023-03-15T18:29:33.404Z,45.17
2023-03-15T18:32:04.813Z,44.84
2023-03-15T18:34:35.575Z,45.35
2023-03-15T18:37:10.026Z,46.28
2023-03-15T18:39:41.442Z,46.04
2023-03-15T18:42:22.610Z,46.37
2023-03-15T18:44:57.381Z,45.81
2023-03-15T18:47:36.158Z,46.21
2023-03-15T18:50:10.478Z,46.63
2023-03-15T18:52:44.713Z,47.12
2023-03-15T18:55:20.212Z,46.76
2023-03-15T18:57:53.709Z,46.33
2023-03-15T19:00:27.957Z,46.18
2023-03-15T19:03:02.139Z,46.83
2023-03-15T19:05:43.754Z,46.30
2023-03-15T19:08:15.456Z,46.00
2023-03-15T19:10:55.736Z,46.87
2023-03-15T19:13:36.797Z,47.49
2023-03-15T19:16:10.403Z,47.35
2023-03-15T19:18:47.843Z,47.16
2023-03-15T19:21:20.101Z,47.52
2023-03-15T19:23:57.117Z,47.10
2023-03-15T19:26:32.937Z,47.17
2023-03-15T19:29:08.993Z,47.86
2023-03-15T19:31:44.716Z,47.62
2023-03-15T19:34:32.164Z,47.37
2023-03-15T19:37:16.744Z,47.38
2023-03-15T19:39:56.240Z,47.41
2023-03-15T19:42:31.850Z,46.91
2023-03-15T19:45:14.583Z,47.13
2023-03-15T19:47:46.380Z,48.05
2023-03-15T19:50:23.713Z,49.00
2023-03-15T19:52:58.848Z,49.13
2023-03-15T19:55:38.875Z,48.04
2023-03-15T20:01:29.953Z,48.81
2023-03-15T20:04:03.774Z,49.72
2023-03-15T20:06:37.212Z,51.03
2023-03-15T20:09:15.952Z,51.51
2023-03-15T20:11:54.999Z,53.51
2023-03-15T20:14:32.094Z,53.66
2023-03-15T20:17:13.997Z,53.86
2023-03-15T20:19:47.458Z,54.06
2023-03-15T20:22:44.168Z,54.50
2023-03-15T20:25:29.397Z,54.87
2023-03-15T20:28:08.890Z,56.21
2023-03-15T20:30:45.760Z,56.93
2023-03-15T20:33:21.267Z,58.13
2023-03-15T20:35:59.848Z,59.87
2023-03-15T20:38:43.298Z,60.93
2023-03-15T20:41:19.851Z,62.64
2023-03-15T20:44:04.432Z,63.26
2023-03-15T20:46:45.025Z,65.63
2023-03-15T20:49:33.866Z,66.94
2023-03-15T20:52:10.357Z,65.54
2023-03-15T20:55:01.723Z,66.51
2023-03-15T20:57:38.195Z,65.77
2023-03-15T21:00:15.557Z,67.54
2023-03-15T21:02:59.812Z,69.06
2023-03-15T21:05:39.053Z,70.31
2023-03-15T21:08:12.644Z,70.76
2023-03-15T21:10:55.921Z,72.85
2023-03-15T21:13:50.421Z,72.32
2023-03-15T21:16:26.410Z,72.99
2023-03-15T21:19:03.693Z,75.49
2023-03-15T21:21:34.961Z,76.13
2023-03-15T21:24:07.636Z,73.60
2023-03-15T21:26:39.409Z,72.26
2023-03-15T21:29:10.901Z,72.20
2023-03-15T21:31:43.126Z,72.35
2023-03-15T21:34:20.535Z,73.51
2023-03-15T21:36:51.656Z,74.91
2023-03-15T21:39:21.609Z,76.04
2023-03-15T21:41:53.372Z,77.66
2023-03-15T21:44:22.815Z,78.77
2023-03-15T21:46:53.113Z,78.88
2023-03-15T21:49:22.256Z,79.46
2023-03-15T21:51:52.079Z,78.34
2023-03-15T21:54:22.413Z,77.08
2023-03-15T21:56:53.577Z,78.14
2023-03-15T21:59:27.861Z,78.01
2023-03-15T22:01:56.843Z,77.25
2023-03-15T22:04:25.979Z,79.02
2023-03-15T22:06:54.725Z,83.06
2023-03-15T22:09:23.995Z,81.75
2023-03-15T22:11:53.878Z,81.90
2023-03-15T22:14:22.523Z,82.70
2023-03-15T22:16:51.706Z,84.22
2023-03-15T22:19:20.040Z,84.42
2023-03-15T22:21:48.683Z,82.64
2023-03-15T22:24:17.017Z,82.88
2023-03-15T22:26:45.946Z,84.80
2023-03-15T22:29:15.858Z,86.12
2023-03-15T22:31:44.156Z,84.18
2023-03-15T22:34:13.175Z,88.64
2023-03-15T22:36:42.808Z,88.23
2023-03-15T22:39:11.726Z,90.52
2023-03-15T22:41:41.416Z,92.56
2023-03-15T22:44:09.752Z,92.53
2023-03-15T22:46:39.516Z,95.41
2023-03-15T22:49:08.056Z,98.57
2023-03-15T22:51:40.432Z,95.90
2023-03-15T22:54:09.285Z,92.42
2023-03-15T22:56:40.986Z,88.86
2023-03-15T22:59:09.426Z,88.76
2023-03-15T23:01:39.092Z,86.96
2023-03-15T23:04:07.729Z,85.74
2023-03-15T23:06:36.152Z,90.36
2023-03-15T23:09:06.556Z,97.21
2023-03-15T23:11:35.001Z,99.93
2023-03-15T23:14:03.279Z,95.91
2023-03-15T23:16:32.057Z,93.17
2023-03-15T23:19:03.368Z,90.25
2023-03-15T23:21:31.772Z,87.55
2023-03-15T23:24:00.277Z,87.97
2023-03-15T23:26:28.741Z,86.94
2023-03-15T23:28:57.290Z,88.48
2023-03-15T23:31:25.618Z,84.69
2023-03-15T23:33:53.950Z,83.83
2023-03-15T23:36:23.697Z,85.75
2023-03-15T23:38:53.407Z,86.93
2023-03-15T23:41:21.798Z,87.73
2023-03-15T23:43:50.039Z,91.30
2023-03-15T23:46:18.413Z,91.48
2023-03-15T23:48:46.800Z,90.22
2023-03-15T23:51:15.197Z,94.68
2023-03-15T23:53:44.999Z,93.42
2023-03-15T23:56:13.311Z,94.96
2023-03-15T23:58:41.567Z,98.38
